Time;durP1;ratioP1;P1;durP2;ratioP2;P2;SDS_P1;SDS_P2;PMS_P1;PMS_P2;Temp;Humidity;BMP_temperature;BMP_pressure;BME280_temperature;BME280_humidity;BME280_pressure;Samples;Min_cycle;Max_cycle;Signal;HPM_P1;HPM_P2
2023/03/11 00:01:24;;;;;;;7.27;6.87;;;2.00;99.90;;;;;;5053678;28;20183;-66
2023/03/11 00:03:49;;;;;;;7.93;7.27;;;2.00;99.90;;;;;;5052848;28;20183;-65
2023/03/11 00:06:15;;;;;;;9.30;8.90;;;2.00;99.90;;;;;;5054836;28;20250;-67
2023/03/11 00:08:41;;;;;;;9.37;8.97;;;2.00;99.90;;;;;;5053198;28;20237;-66
2023/03/11 00:11:06;;;;;;;8.00;7.37;;;2.00;99.90;;;;;;5054180;28;20213;-66
2023/03/11 00:13:32;;;;;;;8.10;7.77;;;2.00;99.90;;;;;;5055185;28;20553;-66
2023/03/11 00:15:59;;;;;;;7.53;7.23;;;2.10;99.90;;;;;;5054585;28;20169;-65
2023/03/11 00:18:28;;;;;;;7.10;6.80;;;2.00;99.90;;;;;;5054804;28;20265;-66
2023/03/11 00:20:55;;;;;;;6.73;6.43;;;2.10;99.90;;;;;;5054900;28;20194;-65
2023/03/11 00:23:22;;;;;;;7.97;7.47;;;2.00;99.90;;;;;;5053274;28;20236;-67
2023/03/11 00:25:48;;;;;;;7.20;6.90;;;2.00;99.90;;;;;;5053432;28;20186;-65
2023/03/11 00:28:14;;;;;;;7.80;7.47;;;1.90;99.90;;;;;;5055267;28;20245;-66
2023/03/11 00:30:41;;;;;;;6.80;6.50;;;1.80;99.90;;;;;;5054684;28;20560;-65
2023/03/11 00:33:07;;;;;;;7.10;6.80;;;1.70;99.90;;;;;;5055705;28;20171;-65
2023/03/11 00:35:34;;;;;;;8.07;7.57;;;1.60;99.90;;;;;;5055498;28;20253;-66
2023/03/11 00:38:02;;;;;;;8.17;7.57;;;1.50;99.90;;;;;;5055213;28;20582;-65
2023/03/11 00:40:30;;;;;;;7.13;6.83;;;1.50;99.90;;;;;;5054711;28;20281;-65
2023/03/11 00:42:56;;;;;;;10.07;6.90;;;1.50;99.90;;;;;;5056594;28;20276;-66
2023/03/11 00:45:22;;;;;;;7.37;7.00;;;1.60;99.90;;;;;;5055779;28;20198;-66
2023/03/11 00:47:49;;;;;;;7.80;7.50;;;1.60;99.90;;;;;;5055852;28;20675;-66
2023/03/11 00:50:20;;;;;;;7.43;7.13;;;1.70;99.90;;;;;;5056543;28;20583;-65
2023/03/11 00:52:47;;;;;;;8.40;7.87;;;1.70;99.90;;;;;;5056153;28;20167;-65
2023/03/11 00:55:15;;;;;;;12.13;7.30;;;1.70;99.90;;;;;;5056007;28;20171;-66
2023/03/11 00:57:42;;;;;;;8.17;7.63;;;1.70;99.90;;;;;;5055365;28;20186;-66
2023/03/11 01:00:11;;;;;;;7.33;7.03;;;1.80;99.90;;;;;;5054630;28;20273;-65
2023/03/11 01:02:37;;;;;;;7.23;6.80;;;1.80;99.90;;;;;;5055892;28;20173;-66
2023/03/11 01:05:04;;;;;;;7.23;6.93;;;1.80;99.90;;;;;;5054073;28;20266;-65
2023/03/11 01:07:32;;;;;;;7.93;7.53;;;1.90;99.90;;;;;;5054799;28;20548;-66
2023/03/11 01:09:58;;;;;;;7.43;6.90;;;1.90;99.90;;;;;;5053313;28;20268;-66
2023/03/11 01:12:23;;;;;;;7.70;7.30;;;1.90;99.90;;;;;;5052463;28;20182;-66
2023/03/11 01:14:49;;;;;;;7.37;7.07;;;1.90;99.90;;;;;;5052582;28;20196;-66
2023/03/11 01:17:14;;;;;;;7.67;7.37;;;1.90;99.90;;;;;;5052485;28;20214;-66
2023/03/11 01:19:40;;;;;;;8.27;7.37;;;1.90;99.90;;;;;;5052201;28;20599;-65
2023/03/11 01:22:06;;;;;;;6.93;6.63;;;1.90;99.90;;;;;;5052074;28;20212;-65
2023/03/11 01:24:31;;;;;;;7.20;6.90;;;1.90;99.90;;;;;;5052360;28;20269;-65
2023/03/11 01:26:57;;;;;;;7.40;6.97;;;1.90;99.90;;;;;;5052294;28;20651;-67
2023/03/11 01:29:22;;;;;;;7.57;7.17;;;1.90;99.90;;;;;;5052114;28;20167;-65
2023/03/11 01:31:48;;;;;;;7.53;7.23;;;1.80;99.90;;;;;;5050553;28;20183;-65
2023/03/11 01:34:14;;;;;;;6.80;6.50;;;1.80;99.90;;;;;;5052367;28;20171;-65
2023/03/11 01:36:39;;;;;;;7.10;6.80;;;1.80;99.90;;;;;;5051986;28;20175;-66
2023/03/11 01:39:05;;;;;;;7.00;6.70;;;1.80;99.90;;;;;;5051169;28;20209;-65
2023/03/11 01:41:30;;;;;;;6.90;6.60;;;1.70;99.90;;;;;;5051839;28;20187;-66
2023/03/11 01:43:56;;;;;;;7.83;7.43;;;1.70;99.90;;;;;;5052224;28;20167;-66
2023/03/11 01:46:29;;;;;;;7.63;7.03;;;1.60;99.90;;;;;;5052282;28;20175;-65
2023/03/11 01:48:59;;;;;;;7.87;7.57;;;1.50;99.90;;;;;;5051729;28;20167;-66
2023/03/11 01:51:54;;;;;;;7.30;6.90;;;1.40;99.90;;;;;;5051707;28;20265;-66
2023/03/11 01:54:27;;;;;;;7.43;7.13;;;1.30;99.90;;;;;;5051509;28;20194;-66
2023/03/11 01:56:54;;;;;;;7.60;7.10;;;1.30;99.90;;;;;;5051854;28;20171;-66
2023/03/11 01:59:25;;;;;;;8.00;7.60;;;1.30;99.90;;;;;;5051373;28;20174;-66
2023/03/11 02:02:17;;;;;;;7.77;7.47;;;1.30;99.90;;;;;;5051568;28;20170;-66
2023/03/11 02:04:43;;;;;;;7.67;7.37;;;1.20;99.90;;;;;;5051866;28;20592;-66
2023/03/11 02:07:10;;;;;;;17.23;7.80;;;1.20;99.90;;;;;;5053070;28;20295;-66
2023/03/11 02:09:36;;;;;;;7.90;7.53;;;1.10;99.90;;;;;;5053014;28;20732;-66
2023/03/11 02:12:02;;;;;;;7.50;7.20;;;1.10;99.90;;;;;;5051664;28;20163;-66
2023/03/11 02:14:30;;;;;;;7.47;7.17;;;1.00;99.90;;;;;;5051445;28;20521;-66
2023/03/11 02:16:57;;;;;;;6.93;6.63;;;1.00;99.90;;;;;;5051596;28;20642;-65
2023/03/11 02:19:55;;;;;;;7.13;6.83;;;1.00;99.90;;;;;;5049866;28;20171;-66
2023/03/11 02:22:21;;;;;;;7.13;6.83;;;1.00;99.90;;;;;;5051341;28;20218;-66
2023/03/11 02:25:21;;;;;;;7.70;7.30;;;1.00;99.90;;;;;;5051445;28;20224;-66
2023/03/11 02:27:50;;;;;;;7.93;7.63;;;1.00;99.90;;;;;;5043428;28;20221;-65
2023/03/11 02:30:17;;;;;;;7.57;7.17;;;1.00;99.90;;;;;;5051093;28;20239;-66
2023/03/11 02:32:46;;;;;;;7.90;7.40;;;1.00;99.90;;;;;;5051159;28;20647;-66
2023/03/11 02:35:13;;;;;;;8.03;7.70;;;1.00;99.90;;;;;;5051923;28;20179;-66
2023/03/11 02:37:46;;;;;;;7.90;7.60;;;1.00;99.90;;;;;;5052227;28;20202;-66
2023/03/11 02:40:21;;;;;;;9.10;8.30;;;1.00;99.90;;;;;;5051358;28;20194;-66
2023/03/11 02:42:53;;;;;;;9.10;8.70;;;1.00;99.90;;;;;;5051878;28;20311;-65
2023/03/11 02:45:22;;;;;;;9.90;8.97;;;0.90;99.90;;;;;;5052738;28;20179;-65
2023/03/11 02:47:49;;;;;;;8.80;8.43;;;0.90;99.90;;;;;;5050958;28;20688;-65
2023/03/11 02:50:15;;;;;;;6.93;6.53;;;0.90;99.90;;;;;;5052510;28;20677;-66
2023/03/11 02:52:41;;;;;;;7.00;6.70;;;0.80;99.90;;;;;;5055180;28;20539;-66
2023/03/11 02:55:08;;;;;;;7.33;7.00;;;0.80;99.90;;;;;;5056355;28;20178;-66
2023/03/11 02:57:34;;;;;;;7.17;6.87;;;0.80;99.90;;;;;;5057404;28;20648;-66
2023/03/11 03:00:07;;;;;;;6.97;6.67;;;0.70;99.90;;;;;;5056802;28;20269;-66
2023/03/11 03:02:33;;;;;;;7.63;7.33;;;0.70;99.90;;;;;;5055393;28;20550;-66
2023/03/11 03:04:58;;;;;;;7.73;7.40;;;0.70;99.90;;;;;;5056459;28;20185;-65
2023/03/11 03:07:24;;;;;;;7.30;7.00;;;0.70;99.90;;;;;;5057390;28;20213;-66
2023/03/11 03:09:49;;;;;;;7.93;7.10;;;0.70;99.90;;;;;;5055534;28;20297;-66
2023/03/11 03:12:15;;;;;;;8.60;6.83;;;0.60;99.90;;;;;;5056722;28;20167;-65
2023/03/11 03:14:41;;;;;;;8.77;6.97;;;0.60;99.90;;;;;;5055398;28;20186;-66
2023/03/11 03:17:06;;;;;;;6.70;6.40;;;0.60;99.90;;;;;;5055247;28;20175;-66
2023/03/11 03:19:32;;;;;;;7.00;6.70;;;0.60;99.90;;;;;;5054271;28;20210;-66
2023/03/11 03:21:57;;;;;;;6.33;6.13;;;0.60;99.90;;;;;;5054480;28;20217;-65
2023/03/11 03:24:23;;;;;;;7.23;6.80;;;0.50;99.90;;;;;;5054489;28;20719;-66
2023/03/11 03:26:48;;;;;;;6.90;6.60;;;0.50;99.90;;;;;;5054519;28;20198;-65
2023/03/11 03:29:14;;;;;;;6.80;6.50;;;0.50;99.90;;;;;;5054386;28;20171;-65
2023/03/11 03:31:39;;;;;;;6.77;6.47;;;0.50;99.90;;;;;;5054594;28;20171;-66
2023/03/11 03:34:05;;;;;;;6.90;6.60;;;0.40;99.90;;;;;;5054276;28;20179;-66
2023/03/11 03:36:31;;;;;;;6.73;6.43;;;0.40;99.90;;;;;;5054450;28;20285;-65
2023/03/11 03:38:58;;;;;;;6.80;6.50;;;0.40;99.90;;;;;;5054742;28;20167;-66
2023/03/11 03:41:23;;;;;;;7.23;6.93;;;0.30;99.90;;;;;;5053413;28;20187;-65
2023/03/11 03:43:49;;;;;;;6.80;6.50;;;0.30;99.90;;;;;;5054370;28;20182;-66
2023/03/11 03:46:15;;;;;;;7.20;6.90;;;0.30;99.90;;;;;;5054678;28;20652;-65
2023/03/11 03:48:41;;;;;;;6.80;6.40;;;0.30;99.90;;;;;;5054761;28;20577;-66
2023/03/11 03:51:10;;;;;;;6.70;6.40;;;0.30;99.90;;;;;;5057055;28;20266;-66
2023/03/11 03:53:37;;;;;;;7.80;7.50;;;0.30;99.90;;;;;;5052726;28;20179;-66
2023/03/11 03:56:07;;;;;;;7.73;7.43;;;0.30;99.90;;;;;;5053923;28;20177;-66
2023/03/11 03:58:33;;;;;;;7.87;7.57;;;0.30;99.90;;;;;;5053861;28;20182;-66
2023/03/11 04:00:59;;;;;;;8.07;7.67;;;0.30;99.90;;;;;;5053125;28;20691;-65
2023/03/11 04:03:26;;;;;;;7.77;7.47;;;0.30;99.90;;;;;;5052318;28;20593;-65
2023/03/11 04:05:51;;;;;;;7.63;7.33;;;0.40;99.90;;;;;;5053762;28;20175;-65
2023/03/11 04:08:17;;;;;;;7.37;6.90;;;0.40;99.90;;;;;;5053593;28;20213;-65
2023/03/11 04:10:43;;;;;;;7.93;7.53;;;0.40;99.90;;;;;;5053277;28;20210;-65
2023/03/11 04:13:08;;;;;;;7.87;7.47;;;0.30;99.90;;;;;;5054282;28;20555;-65
2023/03/11 04:15:37;;;;;;;7.47;7.13;;;0.30;99.90;;;;;;5054873;28;20297;-66
2023/03/11 04:18:02;;;;;;;6.93;6.63;;;0.20;99.90;;;;;;5054113;28;20201;-66
2023/03/11 04:20:28;;;;;;;6.87;6.40;;;0.10;99.90;;;;;;5054012;28;20293;-65
2023/03/11 04:22:54;;;;;;;7.57;7.27;;;0.10;99.90;;;;;;5054597;28;20601;-65
2023/03/11 04:25:19;;;;;;;7.13;6.83;;;0.10;99.90;;;;;;5054868;28;20205;-65
2023/03/11 04:27:48;;;;;;;6.67;6.37;;;0.00;99.90;;;;;;5054559;28;20656;-66
2023/03/11 04:30:14;;;;;;;7.33;6.93;;;0.00;99.90;;;;;;5053795;28;20617;-66
2023/03/11 04:32:40;;;;;;;7.23;6.83;;;0.00;99.90;;;;;;5054081;28;20167;-65
2023/03/11 04:35:06;;;;;;;7.40;7.10;;;0.00;99.90;;;;;;5054289;28;20181;-65
2023/03/11 04:37:32;;;;;;;6.60;6.30;;;0.00;99.90;;;;;;5053041;28;20187;-65
2023/03/11 04:39:58;;;;;;;6.70;6.40;;;0.00;99.90;;;;;;5052828;28;20244;-65
2023/03/11 04:42:23;;;;;;;8.07;7.33;;;0.10;99.90;;;;;;5053040;28;20191;-65
2023/03/11 04:44:49;;;;;;;13.43;6.77;;;0.10;99.90;;;;;;5051873;28;20551;-65
2023/03/11 04:47:15;;;;;;;7.33;6.73;;;0.10;99.90;;;;;;5052623;28;20211;-65
2023/03/11 04:49:41;;;;;;;7.50;7.17;;;0.10;99.90;;;;;;5052877;28;20604;-65
2023/03/11 04:52:06;;;;;;;6.73;6.43;;;0.10;99.90;;;;;;5052743;28;20183;-65
2023/03/11 04:54:32;;;;;;;7.03;6.63;;;0.10;99.90;;;;;;5053040;28;20246;-65
2023/03/11 04:56:57;;;;;;;7.33;7.03;;;0.10;99.90;;;;;;5052604;28;20195;-65
2023/03/11 04:59:23;;;;;;;7.27;6.97;;;0.20;99.90;;;;;;5052803;28;20171;-66
2023/03/11 05:01:48;;;;;;;7.73;7.37;;;0.20;99.90;;;;;;5052591;28;20204;-66
2023/03/11 05:04:14;;;;;;;8.00;7.70;;;0.20;99.90;;;;;;5052892;28;20538;-65
2023/03/11 05:06:39;;;;;;;8.27;7.87;;;0.30;99.90;;;;;;5052347;28;20533;-65
2023/03/11 05:09:05;;;;;;;7.83;6.70;;;0.30;99.90;;;;;;5053141;28;20183;-65
2023/03/11 05:11:31;;;;;;;7.40;7.10;;;0.30;99.90;;;;;;5051163;28;20210;-65
2023/03/11 05:13:56;;;;;;;7.20;6.90;;;0.40;99.90;;;;;;5051351;28;20186;-65
2023/03/11 05:16:22;;;;;;;12.23;7.07;;;0.40;99.90;;;;;;5052835;28;20656;-65
2023/03/11 05:18:48;;;;;;;13.73;7.40;;;0.40;99.90;;;;;;5052281;28;20198;-65
2023/03/11 05:21:13;;;;;;;9.77;9.23;;;0.50;99.90;;;;;;5052304;28;20190;-66
2023/03/11 05:23:39;;;;;;;6.97;6.67;;;0.60;99.90;;;;;;5052265;28;20175;-66
2023/03/11 05:26:05;;;;;;;7.63;7.33;;;0.60;99.90;;;;;;5051334;28;20539;-65
2023/03/11 05:28:30;;;;;;;7.63;7.10;;;0.60;99.90;;;;;;5053627;28;20260;-66
2023/03/11 05:30:56;;;;;;;6.70;6.40;;;0.70;99.90;;;;;;5051850;28;20194;-66
2023/03/11 05:33:21;;;;;;;6.80;6.50;;;0.70;99.90;;;;;;5052507;28;20178;-66
2023/03/11 05:35:47;;;;;;;7.13;6.53;;;0.70;99.90;;;;;;5050670;28;20189;-65
2023/03/11 05:38:12;;;;;;;7.43;7.03;;;0.70;99.90;;;;;;5050834;28;20174;-66
2023/03/11 05:40:38;;;;;;;7.40;7.10;;;0.70;99.90;;;;;;5051379;28;20204;-66
2023/03/11 05:43:04;;;;;;;16.23;7.67;;;0.70;99.90;;;;;;5052245;28;20182;-65
2023/03/11 05:45:29;;;;;;;8.13;7.73;;;0.70;99.90;;;;;;5052049;28;20174;-66
2023/03/11 05:47:55;;;;;;;7.27;6.97;;;0.70;99.90;;;;;;5051868;28;20213;-65
2023/03/11 05:50:20;;;;;;;9.00;8.40;;;0.70;99.90;;;;;;5051195;28;20252;-66
2023/03/11 05:52:46;;;;;;;9.07;8.47;;;0.70;99.90;;;;;;5051906;28;20170;-65
2023/03/11 05:55:11;;;;;;;7.53;7.23;;;0.70;99.90;;;;;;5050427;28;20189;-65
2023/03/11 05:57:38;;;;;;;8.03;7.63;;;0.70;99.90;;;;;;5051907;28;20171;-65
2023/03/11 06:00:11;;;;;;;6.80;6.50;;;0.70;99.90;;;;;;5051176;28;20237;-65
2023/03/11 06:02:38;;;;;;;7.23;6.90;;;0.70;99.90;;;;;;5051781;28;20170;-66
2023/03/11 06:05:05;;;;;;;7.03;6.73;;;0.70;99.90;;;;;;5051373;28;20286;-65
2023/03/11 06:07:30;;;;;;;6.90;6.60;;;0.70;99.90;;;;;;5051323;28;20206;-65
2023/03/11 06:09:56;;;;;;;6.90;6.60;;;0.70;99.90;;;;;;5051749;28;20198;-66
2023/03/11 06:12:21;;;;;;;7.10;6.70;;;0.70;99.90;;;;;;5052466;28;20531;-65
2023/03/11 06:14:47;;;;;;;7.00;6.70;;;0.70;99.90;;;;;;5052643;28;20174;-65
2023/03/11 06:17:13;;;;;;;7.00;6.70;;;0.80;99.90;;;;;;5052633;28;20662;-65
2023/03/11 06:19:38;;;;;;;11.70;7.73;;;0.80;99.90;;;;;;5051722;28;20213;-67
2023/03/11 06:22:04;;;;;;;7.17;6.87;;;0.80;99.90;;;;;;5052600;28;20197;-66
2023/03/11 06:24:29;;;;;;;7.37;6.97;;;0.80;99.90;;;;;;5051727;28;20183;-66
2023/03/11 06:26:55;;;;;;;8.80;8.13;;;0.80;99.90;;;;;;5052489;28;20209;-65
2023/03/11 06:29:23;;;;;;;7.77;7.43;;;0.90;99.90;;;;;;5051867;28;20240;-65
2023/03/11 06:31:49;;;;;;;13.10;7.87;;;1.00;99.90;;;;;;5052156;28;20155;-66
2023/03/11 06:34:14;;;;;;;7.10;6.80;;;1.10;99.90;;;;;;5052555;28;20185;-65
2023/03/11 06:36:40;;;;;;;7.87;7.37;;;1.20;99.90;;;;;;5052997;28;20185;-65
2023/03/11 06:39:06;;;;;;;6.73;6.43;;;1.20;99.90;;;;;;5051355;28;20266;-66
2023/03/11 06:41:34;;;;;;;7.73;7.33;;;1.30;99.90;;;;;;5052876;28;20197;-66
2023/03/11 06:44:00;;;;;;;7.33;7.03;;;1.40;99.90;;;;;;5052425;28;20179;-65
2023/03/11 06:46:26;;;;;;;8.53;8.03;;;1.50;99.90;;;;;;5052986;28;20187;-66
2023/03/11 06:48:51;;;;;;;8.57;8.07;;;1.50;99.90;;;;;;5052715;28;20571;-65
2023/03/11 06:51:18;;;;;;;13.67;8.40;;;1.40;99.90;;;;;;5052468;28;20195;-66
2023/03/11 06:53:48;;;;;;;7.97;7.33;;;1.40;99.90;;;;;;5052682;28;20170;-65
2023/03/11 06:56:14;;;;;;;7.83;7.47;;;1.40;99.90;;;;;;5052513;28;20633;-65
2023/03/11 06:58:41;;;;;;;11.37;7.93;;;1.30;99.90;;;;;;5052581;28;20179;-65
2023/03/11 07:01:12;;;;;;;7.73;7.33;;;1.30;99.90;;;;;;5051008;28;20660;-65
2023/03/11 07:03:37;;;;;;;12.77;10.83;;;1.30;99.90;;;;;;5050858;28;20189;-65
2023/03/11 07:06:04;;;;;;;12.10;11.10;;;1.40;99.90;;;;;;5051186;28;20179;-65
2023/03/11 07:08:30;;;;;;;9.50;8.97;;;1.40;99.90;;;;;;5050813;28;20217;-65
2023/03/11 07:11:12;;;;;;;11.63;8.63;;;1.50;99.90;;;;;;5050639;28;20217;-65
2023/03/11 07:13:38;;;;;;;9.40;7.93;;;1.60;99.90;;;;;;5050931;28;20183;-65
2023/03/11 07:16:04;;;;;;;9.67;8.87;;;1.70;99.90;;;;;;5050957;28;20534;-65
2023/03/11 07:18:30;;;;;;;9.80;7.57;;;1.90;99.90;;;;;;5050782;28;20262;-65
2023/03/11 07:20:56;;;;;;;7.07;6.67;;;2.20;99.90;;;;;;5050964;28;20690;-65
2023/03/11 07:23:21;;;;;;;8.10;7.20;;;2.30;99.90;;;;;;5050775;28;20183;-64
2023/03/11 07:25:48;;;;;;;7.63;7.23;;;2.60;99.90;;;;;;5050924;28;20174;-64
2023/03/11 07:28:14;;;;;;;7.70;7.30;;;2.90;99.90;;;;;;5050484;28;20253;-65
2023/03/11 07:30:39;;;;;;;8.17;7.73;;;3.20;99.90;;;;;;5050421;28;20199;-65
2023/03/11 07:33:05;;;;;;;7.77;7.27;;;3.30;99.90;;;;;;5049716;28;20187;-65
2023/03/11 07:35:30;;;;;;;7.93;7.57;;;3.30;99.90;;;;;;5050906;28;20202;-64
2023/03/11 07:37:56;;;;;;;9.70;8.90;;;3.30;99.90;;;;;;5051341;28;20312;-64
2023/03/11 07:40:22;;;;;;;7.53;7.03;;;3.40;99.90;;;;;;5053638;28;20206;-65
2023/03/11 07:42:47;;;;;;;6.20;5.80;;;3.60;99.90;;;;;;5054231;28;20640;-64
2023/03/11 07:45:13;;;;;;;6.20;5.70;;;3.70;99.90;;;;;;5054067;28;20171;-64
2023/03/11 07:47:39;;;;;;;5.77;5.47;;;4.10;99.90;;;;;;5053973;28;20285;-65
2023/03/11 07:50:05;;;;;;;6.17;5.67;;;4.50;99.90;;;;;;5053451;28;20240;-64
2023/03/11 07:52:31;;;;;;;5.40;5.20;;;4.80;99.90;;;;;;5054691;28;20216;-65
2023/03/11 07:54:57;;;;;;;5.93;5.63;;;4.90;99.90;;;;;;5054049;28;20181;-65
2023/03/11 07:57:23;;;;;;;7.27;6.50;;;4.70;99.90;;;;;;5054144;28;20202;-65
2023/03/11 07:59:49;;;;;;;6.10;5.70;;;4.80;99.90;;;;;;5053629;28;20287;-65
2023/03/11 08:02:14;;;;;;;6.20;5.70;;;5.10;99.90;;;;;;5053890;28;20201;-66
2023/03/11 08:04:40;;;;;;;5.70;5.40;;;5.40;99.90;;;;;;5053814;28;20179;-65
2023/03/11 08:07:05;;;;;;;5.60;5.30;;;5.50;99.90;;;;;;5034024;28;20195;-65
2023/03/11 08:11:59;;;;;;;5.57;5.17;;;5.80;99.90;;;;;;4993076;28;20267;-63
2023/03/11 08:14:25;;;;;;;6.07;5.53;;;6.40;99.90;;;;;;4992838;28;20185;-63
2023/03/11 08:16:50;;;;;;;5.60;5.20;;;6.80;99.90;;;;;;4976743;28;20181;-64
2023/03/11 08:19:16;;;;;;;6.67;4.83;;;7.20;99.90;;;;;;4993914;28;20177;-64
2023/03/11 08:21:41;;;;;;;5.60;5.23;;;7.50;99.90;;;;;;4994023;28;20189;-66
2023/03/11 08:24:10;;;;;;;5.43;5.13;;;8.00;99.90;;;;;;4994001;28;20180;-63
2023/03/11 08:26:35;;;;;;;8.07;5.83;;;8.40;99.90;;;;;;4994073;28;20172;-64
2023/03/11 08:29:01;;;;;;;4.63;4.30;;;8.70;99.90;;;;;;4994034;28;20180;-64
2023/03/11 08:31:32;;;;;;;5.37;4.87;;;9.00;99.90;;;;;;4993876;28;20662;-64
2023/03/11 08:34:01;;;;;;;5.03;4.67;;;8.70;99.90;;;;;;4993580;28;20601;-64
2023/03/11 08:36:27;;;;;;;4.50;4.30;;;8.60;99.90;;;;;;4976372;28;20592;-64
2023/03/11 08:38:52;;;;;;;4.80;4.50;;;8.50;99.90;;;;;;4975853;28;20224;-64
2023/03/11 08:41:18;;;;;;;5.60;5.20;;;8.30;99.90;;;;;;4993816;28;20234;-64
2023/03/11 08:43:44;;;;;;;5.20;4.90;;;8.20;99.90;;;;;;4993278;28;20177;-64
2023/03/11 08:46:22;;;;;;;5.07;4.77;;;8.30;99.90;;;;;;4993728;28;20650;-63
2023/03/11 08:48:48;;;;;;;8.43;5.53;;;8.40;99.90;;;;;;4993380;28;20291;-64
2023/03/11 08:51:14;;;;;;;5.33;5.10;;;8.40;99.90;;;;;;4993471;28;20268;-64
2023/03/11 08:53:39;;;;;;;6.40;5.90;;;8.60;99.90;;;;;;4975867;28;20176;-64
2023/03/11 08:56:06;;;;;;;5.07;4.67;;;8.80;99.90;;;;;;4993627;28;20173;-64
2023/03/11 08:58:31;;;;;;;4.93;4.53;;;8.70;99.90;;;;;;4975995;28;20223;-64
2023/03/11 09:00:57;;;;;;;4.83;4.53;;;8.90;99.90;;;;;;4990802;28;20750;-64
2023/03/11 09:03:23;;;;;;;4.80;4.30;;;9.10;99.90;;;;;;4993349;28;20177;-64
2023/03/11 09:05:55;;;;;;;4.53;3.90;;;9.20;99.90;;;;;;4975852;28;20177;-64
2023/03/11 09:08:20;;;;;;;4.23;4.03;;;9.30;99.90;;;;;;4993384;28;20219;-63
2023/03/11 09:10:46;;;;;;;4.30;4.10;;;9.20;99.90;;;;;;4992624;28;20212;-64
2023/03/11 09:13:11;;;;;;;4.40;4.20;;;9.10;99.90;;;;;;4992936;28;20177;-64
2023/03/11 09:15:37;;;;;;;4.70;4.40;;;9.00;99.90;;;;;;4993054;28;20235;-64
2023/03/11 09:18:03;;;;;;;4.83;4.53;;;9.20;99.90;;;;;;4993240;28;20181;-64
2023/03/11 09:20:28;;;;;;;4.40;4.10;;;9.30;99.90;;;;;;4975438;28;20196;-64
2023/03/11 09:22:54;;;;;;;6.03;4.20;;;9.70;99.90;;;;;;4992805;28;20208;-64
2023/03/11 09:25:20;;;;;;;4.03;3.73;;;10.10;99.90;;;;;;4989007;28;20233;-64
2023/03/11 09:27:45;;;;;;;3.73;3.53;;;10.40;99.90;;;;;;4983065;28;20196;-64
2023/03/11 09:30:11;;;;;;;4.00;3.80;;;10.50;99.90;;;;;;4991418;28;20223;-64
2023/03/11 09:32:37;;;;;;;4.40;4.10;;;10.80;99.90;;;;;;4990704;28;20188;-64
2023/03/11 09:35:03;;;;;;;6.67;3.80;;;10.90;99.90;;;;;;4992857;28;20176;-64
2023/03/11 09:37:29;;;;;;;3.73;3.53;;;11.10;99.90;;;;;;4992366;28;20564;-64
2023/03/11 09:39:55;;;;;;;3.67;3.47;;;11.40;99.90;;;;;;4992403;28;20189;-65
2023/03/11 09:42:34;;;;;;;4.60;4.40;;;11.70;99.90;;;;;;4992212;28;20646;-65
2023/03/11 09:45:13;;;;;;;4.53;4.10;;;11.60;99.30;;;;;;4992783;28;20177;-65
2023/03/11 09:48:17;;;;;;;4.13;3.83;;;11.60;95.80;;;;;;4992657;28;20208;-65
2023/03/11 09:50:58;;;;;;;3.93;3.50;;;11.70;98.30;;;;;;4992209;28;20189;-65
2023/03/11 09:53:41;;;;;;;4.17;3.87;;;11.70;96.60;;;;;;4992332;28;20640;-65
2023/03/11 09:56:19;;;;;;;4.37;4.10;;;11.80;93.00;;;;;;4992548;28;20176;-64
2023/03/11 09:59:03;;;;;;;4.20;4.00;;;11.90;93.10;;;;;;4991697;28;20184;-65
2023/03/11 10:01:42;;;;;;;4.20;3.80;;;11.30;93.00;;;;;;4992383;28;20200;-65
2023/03/11 10:04:12;;;;;;;4.73;4.43;;;11.20;96.40;;;;;;4992250;28;20184;-64
2023/03/11 10:06:40;;;;;;;4.40;4.10;;;11.00;93.80;;;;;;4992253;28;20181;-65
2023/03/11 10:09:11;;;;;;;4.00;3.80;;;10.80;93.70;;;;;;4992260;28;20602;-65
2023/03/11 10:11:52;;;;;;;8.47;5.27;;;10.40;93.00;;;;;;4991821;28;20291;-65
2023/03/11 10:14:20;;;;;;;3.90;3.70;;;10.50;96.40;;;;;;4992130;28;20176;-65
2023/03/11 10:16:52;;;;;;;4.23;4.03;;;11.00;95.30;;;;;;4974563;28;20580;-65
2023/03/11 10:19:31;;;;;;;3.90;3.70;;;10.80;95.50;;;;;;4974942;28;20180;-64
2023/03/11 10:22:06;;;;;;;3.80;3.60;;;10.70;94.00;;;;;;4992175;28;20700;-65
2023/03/11 10:25:10;;;;;;;4.17;3.80;;;11.00;94.70;;;;;;4992077;28;20255;-65
2023/03/11 10:27:58;;;;;;;3.70;3.60;;;11.60;96.10;;;;;;4931494;29;20214;-65
2023/03/11 10:30:42;;;;;;;4.20;4.00;;;11.90;95.80;;;;;;4988144;28;20240;-65
2023/03/11 10:33:16;;;;;;;7.90;3.70;;;12.50;97.80;;;;;;4991777;28;20542;-65
2023/03/11 10:35:46;;;;;;;4.30;3.90;;;13.10;93.00;;;;;;4990811;28;20179;-65
2023/03/11 10:38:16;;;;;;;5.47;4.97;;;13.20;92.70;;;;;;4991781;28;20202;-64
2023/03/11 10:40:44;;;;;;;5.57;4.10;;;12.80;90.00;;;;;;4991761;28;20286;-65
2023/03/11 10:43:42;;;;;;;3.97;3.77;;;12.40;90.30;;;;;;4991991;28;20526;-65
2023/03/11 10:46:23;;;;;;;4.17;3.97;;;11.70;91.60;;;;;;4980333;28;20184;-64
2023/03/11 10:48:49;;;;;;;4.63;4.43;;;11.20;87.70;;;;;;4974035;28;20200;-64
2023/03/11 10:51:21;;;;;;;4.53;4.33;;;10.00;88.20;;;;;;4991691;28;20230;-64
2023/03/11 10:53:50;;;;;;;4.40;4.20;;;9.30;93.00;;;;;;4991237;28;20172;-64
2023/03/11 10:56:36;;;;;;;4.43;4.23;;;9.10;93.70;;;;;;4991671;28;20642;-64
2023/03/11 10:59:05;;;;;;;4.40;4.10;;;9.30;95.00;;;;;;4991283;28;20231;-65
2023/03/11 11:01:31;;;;;;;4.70;4.30;;;9.40;96.10;;;;;;4991297;28;20196;-64
2023/03/11 11:04:00;;;;;;;4.40;4.20;;;9.40;93.60;;;;;;4991736;28;20185;-64
2023/03/11 11:06:34;;;;;;;4.83;4.53;;;9.70;95.90;;;;;;4991307;28;20213;-63
2023/03/11 11:09:14;;;;;;;3.70;3.60;;;9.80;95.20;;;;;;4991556;28;20203;-64
2023/03/11 11:11:40;;;;;;;4.60;4.30;;;9.90;94.80;;;;;;4992349;28;20651;-64
2023/03/11 11:14:08;;;;;;;4.87;4.57;;;9.80;94.80;;;;;;4995596;28;20230;-64
2023/03/11 11:16:35;;;;;;;4.50;4.20;;;9.90;96.90;;;;;;4995008;28;20185;-65
2023/03/11 11:19:14;;;;;;;4.77;4.33;;;10.00;95.80;;;;;;4995368;28;20183;-65
2023/03/11 11:22:03;;;;;;;4.70;4.40;;;9.70;96.50;;;;;;4993906;28;20729;-64
2023/03/11 11:24:30;;;;;;;4.30;4.10;;;9.60;95.80;;;;;;4995010;28;20169;-64
2023/03/11 11:27:14;;;;;;;4.60;4.20;;;9.50;96.80;;;;;;4994649;28;20181;-64
2023/03/11 11:29:40;;;;;;;4.63;4.43;;;9.20;96.40;;;;;;4994429;28;20165;-64
2023/03/11 11:32:17;;;;;;;6.37;5.20;;;8.80;94.10;;;;;;4995154;28;20169;-65
2023/03/11 11:34:53;;;;;;;4.90;4.70;;;8.50;93.80;;;;;;4994832;28;20180;-65
2023/03/11 11:37:19;;;;;;;7.70;7.10;;;8.30;97.10;;;;;;4995059;28;20200;-64
2023/03/11 11:39:56;;;;;;;6.43;6.03;;;8.50;99.60;;;;;;4994198;28;20169;-64
2023/03/11 11:42:25;;;;;;;6.30;5.80;;;8.70;98.10;;;;;;4994976;28;20176;-65
2023/03/11 11:44:56;;;;;;;5.33;5.03;;;8.70;96.50;;;;;;4994598;28;20173;-63
2023/03/11 11:47:27;;;;;;;5.20;5.00;;;8.60;98.10;;;;;;4994872;28;20215;-64
2023/03/11 11:49:56;;;;;;;5.87;5.23;;;8.50;97.40;;;;;;4994149;28;20228;-64
2023/03/11 11:52:45;;;;;;;5.13;4.83;;;8.70;97.70;;;;;;4994791;28;20161;-64
2023/03/11 11:55:24;;;;;;;4.50;4.30;;;8.90;96.80;;;;;;4993701;28;20565;-65
2023/03/11 11:57:50;;;;;;;4.83;4.53;;;9.20;95.70;;;;;;4994560;28;20168;-64
2023/03/11 12:01:03;;;;;;;5.07;4.60;;;9.40;97.70;;;;;;4994147;28;20569;-64
2023/03/11 12:03:54;;;;;;;4.50;4.20;;;9.70;95.60;;;;;;4896573;29;20192;-64
2023/03/11 12:06:36;;;;;;;4.60;4.20;;;9.80;95.70;;;;;;4974241;28;20209;-65
2023/03/11 12:09:23;;;;;;;4.43;4.23;;;10.00;95.00;;;;;;4977197;28;20207;-64
2023/03/11 12:12:00;;;;;;;5.53;4.60;;;10.20;96.10;;;;;;4994189;28;20205;-64
2023/03/11 12:14:44;;;;;;;4.40;4.20;;;9.90;93.10;;;;;;4976586;28;20638;-65
2023/03/11 12:17:13;;;;;;;6.73;4.83;;;9.60;94.20;;;;;;4994186;28;20518;-65
2023/03/11 12:19:57;;;;;;;4.50;4.20;;;9.70;94.80;;;;;;4993888;28;20758;-64
2023/03/11 12:22:54;;;;;;;4.27;4.07;;;9.60;96.00;;;;;;4993327;28;20260;-65
2023/03/11 12:25:38;;;;;;;8.47;4.40;;;9.50;95.40;;;;;;4994318;28;20642;-64
2023/03/11 12:28:20;;;;;;;8.33;5.70;;;8.80;92.60;;;;;;4993141;28;20208;-64
2023/03/11 12:31:01;;;;;;;5.23;4.93;;;8.50;95.20;;;;;;4993765;28;20188;-65
2023/03/11 12:33:37;;;;;;;5.23;5.03;;;8.70;98.20;;;;;;4994141;28;20231;-64
2023/03/11 12:36:05;;;;;;;5.23;4.60;;;8.80;97.40;;;;;;4994197;28;20192;-63
2023/03/11 12:38:46;;;;;;;4.50;4.30;;;9.30;97.60;;;;;;4993970;28;20220;-63
2023/03/11 12:41:14;;;;;;;4.77;4.47;;;9.50;96.70;;;;;;4993884;28;20673;-63
2023/03/11 12:43:39;;;;;;;4.63;4.43;;;9.80;98.00;;;;;;4992899;28;20327;-63
2023/03/11 12:46:06;;;;;;;4.53;4.33;;;9.90;96.40;;;;;;4993907;28;20271;-62
2023/03/11 12:48:44;;;;;;;5.40;4.50;;;9.90;95.90;;;;;;4994041;28;20208;-62
2023/03/11 12:51:25;;;;;;;4.97;4.57;;;9.60;94.60;;;;;;4993289;28;20204;-63
2023/03/11 12:53:51;;;;;;;4.20;4.00;;;9.50;96.20;;;;;;4993722;28;20175;-64
2023/03/11 12:56:30;;;;;;;4.50;4.30;;;9.70;97.90;;;;;;4975856;28;20185;-63
2023/03/11 12:59:14;;;;;;;8.27;4.70;;;9.90;96.40;;;;;;4994948;28;20616;-63
2023/03/11 13:01:55;;;;;;;4.40;4.20;;;10.00;95.50;;;;;;4993248;28;20296;-64
2023/03/11 13:04:42;;;;;;;4.83;4.47;;;10.40;97.40;;;;;;4993183;28;20196;-65
2023/03/11 13:07:33;;;;;;;4.10;3.90;;;10.80;94.40;;;;;;4993277;28;20685;-62
2023/03/11 13:10:16;;;;;;;4.50;4.30;;;11.40;96.70;;;;;;4992393;28;20216;-64